sensor_id;sensor_type;location;lat;lon;timestamp;P1;durP1;ratioP1;P2;durP2;ratioP2
53959;SDS011;39866;48.638;-2.020;2022-10-14T00:00:33;4.43;;;3.63;;
53959;SDS011;39866;48.638;-2.020;2022-10-14T00:02:58;6.22;;;4.00;;
53959;SDS011;39866;48.638;-2.020;2022-10-14T00:05:23;5.15;;;4.00;;
53959;SDS011;39866;48.638;-2.020;2022-10-14T00:07:49;5.75;;;4.32;;
53959;SDS011;39866;48.638;-2.020;2022-10-14T00:10:15;5.80;;;4.72;;
53959;SDS011;39866;48.638;-2.020;2022-10-14T00:12:40;6.78;;;4.68;;
53959;SDS011;39866;48.638;-2.020;2022-10-14T00:15:06;7.22;;;4.13;;
53959;SDS011;39866;48.638;-2.020;2022-10-14T00:17:32;7.70;;;4.85;;
53959;SDS011;39866;48.638;-2.020;2022-10-14T00:19:58;8.13;;;5.10;;
53959;SDS011;39866;48.638;-2.020;2022-10-14T00:22:23;8.50;;;5.13;;
53959;SDS011;39866;48.638;-2.020;2022-10-14T00:24:49;7.53;;;5.18;;
53959;SDS011;39866;48.638;-2.020;2022-10-14T00:27:14;7.18;;;5.30;;
53959;SDS011;39866;48.638;-2.020;2022-10-14T00:29:40;7.22;;;5.70;;
53959;SDS011;39866;48.638;-2.020;2022-10-14T00:32:05;6.18;;;5.40;;
53959;SDS011;39866;48.638;-2.020;2022-10-14T00:34:30;6.60;;;5.57;;
53959;SDS011;39866;48.638;-2.020;2022-10-14T00:36:56;8.20;;;5.65;;
53959;SDS011;39866;48.638;-2.020;2022-10-14T00:39:21;8.13;;;5.80;;
53959;SDS011;39866;48.638;-2.020;2022-10-14T00:41:47;8.13;;;6.28;;
53959;SDS011;39866;48.638;-2.020;2022-10-14T00:46:38;7.88;;;6.60;;
53959;SDS011;39866;48.638;-2.020;2022-10-14T00:49:27;8.43;;;6.63;;
53959;SDS011;39866;48.638;-2.020;2022-10-14T00:51:55;6.55;;;5.43;;
53959;SDS011;39866;48.638;-2.020;2022-10-14T00:54:27;9.82;;;6.70;;
53959;SDS011;39866;48.638;-2.020;2022-10-14T00:56:58;8.82;;;6.20;;
53959;SDS011;39866;48.638;-2.020;2022-10-14T00:59:24;7.40;;;6.40;;
53959;SDS011;39866;48.638;-2.020;2022-10-14T01:01:49;7.05;;;6.20;;
53959;SDS011;39866;48.638;-2.020;2022-10-14T01:04:15;11.32;;;7.20;;
53959;SDS011;39866;48.638;-2.020;2022-10-14T01:14:35;7.80;;;7.00;;
53959;SDS011;39866;48.638;-2.020;2022-10-14T01:23:09;10.00;;;7.20;;
53959;SDS011;39866;48.638;-2.020;2022-10-14T01:28:28;9.40;;;7.53;;
53959;SDS011;39866;48.638;-2.020;2022-10-14T01:31:04;10.10;;;7.95;;
53959;SDS011;39866;48.638;-2.020;2022-10-14T01:33:44;9.32;;;7.90;;
53959;SDS011;39866;48.638;-2.020;2022-10-14T01:36:20;9.63;;;8.00;;
53959;SDS011;39866;48.638;-2.020;2022-10-14T01:41:35;11.18;;;8.70;;
53959;SDS011;39866;48.638;-2.020;2022-10-14T01:44:06;9.63;;;8.02;;
53959;SDS011;39866;48.638;-2.020;2022-10-14T01:46:35;10.57;;;7.90;;
53959;SDS011;39866;48.638;-2.020;2022-10-14T01:49:06;11.32;;;8.75;;
53959;SDS011;39866;48.638;-2.020;2022-10-14T01:51:38;9.60;;;7.63;;
53959;SDS011;39866;48.638;-2.020;2022-10-14T01:54:09;11.63;;;8.68;;
53959;SDS011;39866;48.638;-2.020;2022-10-14T01:56:39;10.65;;;9.18;;
53959;SDS011;39866;48.638;-2.020;2022-10-14T01:59:06;10.07;;;8.80;;
53959;SDS011;39866;48.638;-2.020;2022-10-14T02:01:35;9.20;;;7.78;;
53959;SDS011;39866;48.638;-2.020;2022-10-14T02:04:01;10.68;;;8.25;;
53959;SDS011;39866;48.638;-2.020;2022-10-14T02:06:29;11.15;;;8.77;;
53959;SDS011;39866;48.638;-2.020;2022-10-14T02:09:02;11.88;;;8.82;;
53959;SDS011;39866;48.638;-2.020;2022-10-14T02:11:39;11.15;;;8.70;;
53959;SDS011;39866;48.638;-2.020;2022-10-14T02:17:11;11.52;;;8.75;;
53959;SDS011;39866;48.638;-2.020;2022-10-14T02:25:04;11.02;;;8.55;;
53959;SDS011;39866;48.638;-2.020;2022-10-14T02:27:45;10.75;;;7.90;;
53959;SDS011;39866;48.638;-2.020;2022-10-14T02:30:13;11.15;;;8.73;;
53959;SDS011;39866;48.638;-2.020;2022-10-14T02:32:40;12.35;;;8.95;;
53959;SDS011;39866;48.638;-2.020;2022-10-14T02:35:08;12.02;;;9.63;;
53959;SDS011;39866;48.638;-2.020;2022-10-14T02:37:35;12.18;;;9.68;;
53959;SDS011;39866;48.638;-2.020;2022-10-14T02:40:06;12.25;;;9.48;;
53959;SDS011;39866;48.638;-2.020;2022-10-14T02:42:35;11.50;;;9.50;;
53959;SDS011;39866;48.638;-2.020;2022-10-14T02:45:01;12.00;;;9.35;;
53959;SDS011;39866;48.638;-2.020;2022-10-14T02:47:27;13.80;;;10.13;;
53959;SDS011;39866;48.638;-2.020;2022-10-14T02:49:53;13.07;;;9.48;;
53959;SDS011;39866;48.638;-2.020;2022-10-14T02:52:18;14.15;;;9.23;;
53959;SDS011;39866;48.638;-2.020;2022-10-14T02:54:44;12.25;;;9.27;;
53959;SDS011;39866;48.638;-2.020;2022-10-14T02:57:09;10.32;;;8.68;;
53959;SDS011;39866;48.638;-2.020;2022-10-14T02:59:35;12.18;;;8.88;;
53959;SDS011;39866;48.638;-2.020;2022-10-14T03:02:00;11.95;;;9.05;;
53959;SDS011;39866;48.638;-2.020;2022-10-14T03:04:26;12.52;;;9.18;;
53959;SDS011;39866;48.638;-2.020;2022-10-14T03:06:51;11.27;;;8.85;;
53959;SDS011;39866;48.638;-2.020;2022-10-14T03:09:17;13.32;;;9.23;;
53959;SDS011;39866;48.638;-2.020;2022-10-14T03:11:43;10.70;;;9.32;;
53959;SDS011;39866;48.638;-2.020;2022-10-14T03:14:08;12.77;;;9.70;;
53959;SDS011;39866;48.638;-2.020;2022-10-14T03:16:34;11.90;;;9.70;;
53959;SDS011;39866;48.638;-2.020;2022-10-14T03:18:59;11.65;;;9.13;;
53959;SDS011;39866;48.638;-2.020;2022-10-14T03:21:24;12.95;;;9.27;;
53959;SDS011;39866;48.638;-2.020;2022-10-14T03:23:50;14.18;;;10.15;;
53959;SDS011;39866;48.638;-2.020;2022-10-14T03:26:16;13.00;;;9.75;;
53959;SDS011;39866;48.638;-2.020;2022-10-14T03:28:42;13.65;;;9.80;;
53959;SDS011;39866;48.638;-2.020;2022-10-14T03:31:07;13.68;;;9.63;;
53959;SDS011;39866;48.638;-2.020;2022-10-14T03:33:32;14.10;;;9.68;;
53959;SDS011;39866;48.638;-2.020;2022-10-14T03:35:57;15.00;;;10.15;;
53959;SDS011;39866;48.638;-2.020;2022-10-14T03:38:23;11.88;;;9.50;;
53959;SDS011;39866;48.638;-2.020;2022-10-14T03:40:48;11.73;;;9.38;;
53959;SDS011;39866;48.638;-2.020;2022-10-14T03:43:14;13.55;;;10.00;;
53959;SDS011;39866;48.638;-2.020;2022-10-14T03:45:39;13.85;;;10.07;;
53959;SDS011;39866;48.638;-2.020;2022-10-14T03:48:04;13.82;;;9.75;;
53959;SDS011;39866;48.638;-2.020;2022-10-14T03:50:30;14.05;;;9.13;;
53959;SDS011;39866;48.638;-2.020;2022-10-14T03:52:55;12.85;;;9.43;;
53959;SDS011;39866;48.638;-2.020;2022-10-14T03:55:21;13.50;;;9.98;;
53959;SDS011;39866;48.638;-2.020;2022-10-14T03:57:46;13.73;;;10.20;;
53959;SDS011;39866;48.638;-2.020;2022-10-14T04:00:12;12.30;;;9.82;;
53959;SDS011;39866;48.638;-2.020;2022-10-14T04:02:37;14.50;;;10.02;;
53959;SDS011;39866;48.638;-2.020;2022-10-14T04:05:03;13.10;;;9.90;;
53959;SDS011;39866;48.638;-2.020;2022-10-14T04:07:28;12.65;;;10.10;;
53959;SDS011;39866;48.638;-2.020;2022-10-14T04:09:54;12.95;;;9.40;;
53959;SDS011;39866;48.638;-2.020;2022-10-14T04:12:20;12.95;;;9.82;;
53959;SDS011;39866;48.638;-2.020;2022-10-14T04:14:45;11.77;;;9.63;;
53959;SDS011;39866;48.638;-2.020;2022-10-14T04:17:11;12.85;;;10.15;;
53959;SDS011;39866;48.638;-2.020;2022-10-14T04:19:36;11.95;;;8.52;;
53959;SDS011;39866;48.638;-2.020;2022-10-14T04:22:01;13.68;;;9.77;;
53959;SDS011;39866;48.638;-2.020;2022-10-14T04:24:27;12.38;;;9.43;;
53959;SDS011;39866;48.638;-2.020;2022-10-14T04:26:52;11.25;;;8.75;;
53959;SDS011;39866;48.638;-2.020;2022-10-14T04:29:17;11.45;;;9.00;;
53959;SDS011;39866;48.638;-2.020;2022-10-14T04:31:43;12.18;;;8.93;;
53959;SDS011;39866;48.638;-2.020;2022-10-14T04:34:09;10.55;;;8.38;;
53959;SDS011;39866;48.638;-2.020;2022-10-14T04:36:35;10.73;;;8.60;;
53959;SDS011;39866;48.638;-2.020;2022-10-14T04:39:01;12.00;;;8.50;;
53959;SDS011;39866;48.638;-2.020;2022-10-14T04:41:26;11.63;;;8.10;;
53959;SDS011;39866;48.638;-2.020;2022-10-14T04:43:51;11.15;;;7.90;;
53959;SDS011;39866;48.638;-2.020;2022-10-14T04:46:17;10.10;;;7.10;;
53959;SDS011;39866;48.638;-2.020;2022-10-14T04:48:42;9.20;;;7.00;;
53959;SDS011;39866;48.638;-2.020;2022-10-14T04:51:08;8.20;;;6.60;;
53959;SDS011;39866;48.638;-2.020;2022-10-14T04:53:33;8.93;;;7.00;;
53959;SDS011;39866;48.638;-2.020;2022-10-14T04:55:58;9.85;;;6.60;;
53959;SDS011;39866;48.638;-2.020;2022-10-14T04:58:23;11.02;;;7.25;;
53959;SDS011;39866;48.638;-2.020;2022-10-14T05:00:49;8.65;;;6.97;;
53959;SDS011;39866;48.638;-2.020;2022-10-14T05:03:14;10.85;;;6.88;;
53959;SDS011;39866;48.638;-2.020;2022-10-14T05:05:40;8.43;;;7.00;;
53959;SDS011;39866;48.638;-2.020;2022-10-14T05:08:05;7.93;;;6.20;;
53959;SDS011;39866;48.638;-2.020;2022-10-14T05:10:31;8.95;;;6.45;;
53959;SDS011;39866;48.638;-2.020;2022-10-14T05:12:57;8.82;;;6.18;;
53959;SDS011;39866;48.638;-2.020;2022-10-14T05:15:22;7.55;;;5.75;;
53959;SDS011;39866;48.638;-2.020;2022-10-14T05:17:48;7.68;;;5.65;;
53959;SDS011;39866;48.638;-2.020;2022-10-14T05:20:13;7.55;;;5.80;;
53959;SDS011;39866;48.638;-2.020;2022-10-14T05:22:39;8.55;;;6.65;;
53959;SDS011;39866;48.638;-2.020;2022-10-14T05:25:04;7.32;;;5.97;;
53959;SDS011;39866;48.638;-2.020;2022-10-14T05:27:30;9.60;;;5.95;;
53959;SDS011;39866;48.638;-2.020;2022-10-14T05:29:55;8.15;;;5.57;;
53959;SDS011;39866;48.638;-2.020;2022-10-14T05:32:20;9.93;;;6.35;;
53959;SDS011;39866;48.638;-2.020;2022-10-14T05:34:46;7.70;;;6.00;;
53959;SDS011;39866;48.638;-2.020;2022-10-14T05:37:11;9.60;;;5.88;;
53959;SDS011;39866;48.638;-2.020;2022-10-14T05:39:37;8.07;;;5.60;;
53959;SDS011;39866;48.638;-2.020;2022-10-14T05:42:02;7.05;;;5.85;;
53959;SDS011;39866;48.638;-2.020;2022-10-14T05:44:28;8.02;;;6.05;;
53959;SDS011;39866;48.638;-2.020;2022-10-14T05:46:53;8.27;;;5.70;;
53959;SDS011;39866;48.638;-2.020;2022-10-14T05:49:18;6.53;;;5.10;;
53959;SDS011;39866;48.638;-2.020;2022-10-14T05:51:44;10.25;;;5.15;;
53959;SDS011;39866;48.638;-2.020;2022-10-14T05:54:09;5.72;;;4.57;;
53959;SDS011;39866;48.638;-2.020;2022-10-14T05:56:35;7.63;;;4.82;;
53959;SDS011;39866;48.638;-2.020;2022-10-14T05:59:01;7.60;;;4.43;;
53959;SDS011;39866;48.638;-2.020;2022-10-14T06:01:26;5.32;;;4.20;;
53959;SDS011;39866;48.638;-2.020;2022-10-14T06:03:52;6.07;;;4.35;;
53959;SDS011;39866;48.638;-2.020;2022-10-14T06:06:17;5.97;;;4.28;;
53959;SDS011;39866;48.638;-2.020;2022-10-14T06:08:43;6.47;;;4.55;;
53959;SDS011;39866;48.638;-2.020;2022-10-14T06:11:09;5.78;;;4.20;;
53959;SDS011;39866;48.638;-2.020;2022-10-14T06:13:36;7.03;;;4.28;;
53959;SDS011;39866;48.638;-2.020;2022-10-14T06:16:05;6.05;;;3.60;;
53959;SDS011;39866;48.638;-2.020;2022-10-14T06:18:32;4.00;;;3.00;;
53959;SDS011;39866;48.638;-2.020;2022-10-14T06:20:58;4.97;;;2.80;;
53959;SDS011;39866;48.638;-2.020;2022-10-14T06:23:24;3.88;;;2.28;;
53959;SDS011;39866;48.638;-2.020;2022-10-14T06:25:49;4.05;;;2.45;;
53959;SDS011;39866;48.638;-2.020;2022-10-14T06:28:15;3.75;;;2.70;;
53959;SDS011;39866;48.638;-2.020;2022-10-14T06:30:40;5.28;;;2.92;;
53959;SDS011;39866;48.638;-2.020;2022-10-14T06:33:06;4.13;;;3.05;;
53959;SDS011;39866;48.638;-2.020;2022-10-14T06:35:31;5.35;;;3.15;;
53959;SDS011;39866;48.638;-2.020;2022-10-14T06:37:56;4.88;;;3.40;;
53959;SDS011;39866;48.638;-2.020;2022-10-14T06:40:22;4.88;;;3.22;;
53959;SDS011;39866;48.638;-2.020;2022-10-14T06:42:47;5.03;;;3.70;;
53959;SDS011;39866;48.638;-2.020;2022-10-14T06:45:13;5.97;;;3.67;;
53959;SDS011;39866;48.638;-2.020;2022-10-14T06:47:38;6.03;;;3.80;;
53959;SDS011;39866;48.638;-2.020;2022-10-14T06:50:04;4.85;;;3.50;;
53959;SDS011;39866;48.638;-2.020;2022-10-14T06:52:29;5.57;;;3.58;;
53959;SDS011;39866;48.638;-2.020;2022-10-14T06:54:55;6.50;;;3.75;;
53959;SDS011;39866;48.638;-2.020;2022-10-14T06:57:20;4.55;;;3.67;;
53959;SDS011;39866;48.638;-2.020;2022-10-14T06:59:45;5.18;;;3.40;;
53959;SDS011;39866;48.638;-2.020;2022-10-14T07:02:11;5.93;;;4.07;;
53959;SDS011;39866;48.638;-2.020;2022-10-14T07:04:37;5.75;;;4.07;;
53959;SDS011;39866;48.638;-2.020;2022-10-14T07:07:03;6.75;;;4.28;;
53959;SDS011;39866;48.638;-2.020;2022-10-14T07:09:28;6.40;;;4.05;;
53959;SDS011;39866;48.638;-2.020;2022-10-14T07:11:54;6.10;;;4.57;;
53959;SDS011;39866;48.638;-2.020;2022-10-14T07:14:20;6.25;;;4.10;;
53959;SDS011;39866;48.638;-2.020;2022-10-14T07:16:45;4.72;;;3.65;;
53959;SDS011;39866;48.638;-2.020;2022-10-14T07:19:11;5.68;;;3.95;;
53959;SDS011;39866;48.638;-2.020;2022-10-14T07:21:36;5.32;;;3.58;;
53959;SDS011;39866;48.638;-2.020;2022-10-14T07:24:02;3.95;;;3.15;;
53959;SDS011;39866;48.638;-2.020;2022-10-14T07:26:30;4.05;;;3.17;;
53959;SDS011;39866;48.638;-2.020;2022-10-14T07:28:56;6.55;;;3.35;;
53959;SDS011;39866;48.638;-2.020;2022-10-14T07:31:21;3.90;;;3.08;;
53959;SDS011;39866;48.638;-2.020;2022-10-14T07:33:46;3.92;;;3.05;;
53959;SDS011;39866;48.638;-2.020;2022-10-14T07:36:13;4.05;;;3.00;;
53959;SDS011;39866;48.638;-2.020;2022-10-14T07:38:40;4.55;;;2.80;;
53959;SDS011;39866;48.638;-2.020;2022-10-14T07:41:06;5.22;;;2.58;;
53959;SDS011;39866;48.638;-2.020;2022-10-14T07:43:40;4.20;;;2.80;;
53959;SDS011;39866;48.638;-2.020;2022-10-14T07:46:09;4.68;;;3.00;;
53959;SDS011;39866;48.638;-2.020;2022-10-14T07:48:36;3.33;;;2.25;;
53959;SDS011;39866;48.638;-2.020;2022-10-14T07:51:03;3.45;;;2.60;;
53959;SDS011;39866;48.638;-2.020;2022-10-14T07:53:29;4.78;;;3.80;;
53959;SDS011;39866;48.638;-2.020;2022-10-14T07:55:55;4.20;;;2.88;;
53959;SDS011;39866;48.638;-2.020;2022-10-14T07:58:22;5.82;;;4.72;;
53959;SDS011;39866;48.638;-2.020;2022-10-14T08:00:49;3.05;;;2.42;;
53959;SDS011;39866;48.638;-2.020;2022-10-14T08:03:16;3.42;;;2.00;;
53959;SDS011;39866;48.638;-2.020;2022-10-14T08:05:43;2.30;;;1.83;;
53959;SDS011;39866;48.638;-2.020;2022-10-14T08:08:09;4.25;;;2.22;;
53959;SDS011;39866;48.638;-2.020;2022-10-14T08:10:35;2.17;;;1.90;;
53959;SDS011;39866;48.638;-2.020;2022-10-14T08:13:02;2.83;;;1.80;;
53959;SDS011;39866;48.638;-2.020;2022-10-14T08:15:31;2.88;;;2.00;;
53959;SDS011;39866;48.638;-2.020;2022-10-14T08:17:58;2.83;;;1.83;;
53959;SDS011;39866;48.638;-2.020;2022-10-14T08:20:23;3.03;;;1.90;;
53959;SDS011;39866;48.638;-2.020;2022-10-14T08:22:48;2.38;;;1.80;;
53959;SDS011;39866;48.638;-2.020;2022-10-14T08:25:14;2.10;;;1.90;;
53959;SDS011;39866;48.638;-2.020;2022-10-14T08:27:39;2.92;;;2.00;;
53959;SDS011;39866;48.638;-2.020;2022-10-14T08:30:04;2.15;;;1.80;;
53959;SDS011;39866;48.638;-2.020;2022-10-14T08:32:30;2.60;;;1.92;;
53959;SDS011;39866;48.638;-2.020;2022-10-14T08:34:56;2.60;;;2.03;;
53959;SDS011;39866;48.638;-2.020;2022-10-14T08:37:21;2.00;;;1.80;;
53959;SDS011;39866;48.638;-2.020;2022-10-14T08:39:47;2.78;;;2.30;;
53959;SDS011;39866;48.638;-2.020;2022-10-14T08:44:41;2.28;;;1.70;;
53959;SDS011;39866;48.638;-2.020;2022-10-14T08:47:10;2.65;;;2.00;;
53959;SDS011;39866;48.638;-2.020;2022-10-14T08:57:59;2.67;;;2.00;;
53959;SDS011;39866;48.638;-2.020;2022-10-14T09:00:39;2.00;;;1.80;;
53959;SDS011;39866;48.638;-2.020;2022-10-14T09:03:12;2.05;;;1.85;;
53959;SDS011;39866;48.638;-2.020;2022-10-14T09:05:42;2.72;;;2.00;;
53959;SDS011;39866;48.638;-2.020;2022-10-14T09:08:08;2.22;;;1.95;;
53959;SDS011;39866;48.638;-2.020;2022-10-14T09:10:40;2.67;;;1.83;;
53959;SDS011;39866;48.638;-2.020;2022-10-14T09:13:21;2.13;;;1.90;;
53959;SDS011;39866;48.638;-2.020;2022-10-14T09:15:57;1.88;;;1.75;;
53959;SDS011;39866;48.638;-2.020;2022-10-14T09:18:37;2.00;;;1.80;;
53959;SDS011;39866;48.638;-2.020;2022-10-14T09:21:50;2.25;;;1.55;;
53959;SDS011;39866;48.638;-2.020;2022-10-14T09:26:47;2.17;;;1.73;;
53959;SDS011;39866;48.638;-2.020;2022-10-14T09:32:00;2.83;;;1.55;;
53959;SDS011;39866;48.638;-2.020;2022-10-14T09:34:29;2.85;;;1.60;;
53959;SDS011;39866;48.638;-2.020;2022-10-14T09:36:59;1.75;;;1.60;;
53959;SDS011;39866;48.638;-2.020;2022-10-14T09:39:48;2.65;;;1.70;;
53959;SDS011;39866;48.638;-2.020;2022-10-14T09:42:17;2.15;;;1.80;;
53959;SDS011;39866;48.638;-2.020;2022-10-14T09:44:58;2.30;;;1.88;;
53959;SDS011;39866;48.638;-2.020;2022-10-14T09:47:28;2.58;;;1.75;;
53959;SDS011;39866;48.638;-2.020;2022-10-14T09:49:54;1.70;;;1.60;;
53959;SDS011;39866;48.638;-2.020;2022-10-14T09:52:23;2.38;;;2.00;;
53959;SDS011;39866;48.638;-2.020;2022-10-14T09:54:53;2.17;;;1.70;;
53959;SDS011;39866;48.638;-2.020;2022-10-14T09:57:20;2.50;;;2.00;;
53959;SDS011;39866;48.638;-2.020;2022-10-14T09:59:54;2.25;;;2.03;;
53959;SDS011;39866;48.638;-2.020;2022-10-14T10:02:24;2.65;;;2.20;;
53959;SDS011;39866;48.638;-2.020;2022-10-14T10:04:57;3.38;;;2.40;;
53959;SDS011;39866;48.638;-2.020;2022-10-14T10:07:36;2.13;;;1.90;;
53959;SDS011;39866;48.638;-2.020;2022-10-14T10:10:03;3.63;;;2.30;;
53959;SDS011;39866;48.638;-2.020;2022-10-14T10:12:41;2.17;;;1.98;;
53959;SDS011;39866;48.638;-2.020;2022-10-14T10:15:15;3.20;;;2.90;;
53959;SDS011;39866;48.638;-2.020;2022-10-14T10:17:43;3.10;;;2.50;;
53959;SDS011;39866;48.638;-2.020;2022-10-14T10:22:44;10.70;;;9.38;;
53959;SDS011;39866;48.638;-2.020;2022-10-14T10:27:39;1.95;;;1.65;;
53959;SDS011;39866;48.638;-2.020;2022-10-14T10:38:33;1.63;;;1.20;;
53959;SDS011;39866;48.638;-2.020;2022-10-14T10:57:58;0.60;;;0.40;;
53959;SDS011;39866;48.638;-2.020;2022-10-14T11:00:25;1.60;;;0.50;;
53959;SDS011;39866;48.638;-2.020;2022-10-14T11:11:16;1.92;;;0.50;;
53959;SDS011;39866;48.638;-2.020;2022-10-14T11:24:56;0.68;;;0.40;;
53959;SDS011;39866;48.638;-2.020;2022-10-14T11:27:44;1.08;;;0.52;;
53959;SDS011;39866;48.638;-2.020;2022-10-14T11:30:35;1.75;;;0.50;;
53959;SDS011;39866;48.638;-2.020;2022-10-14T11:39:02;1.75;;;0.57;;
53959;SDS011;39866;48.638;-2.020;2022-10-14T11:44:32;2.03;;;0.70;;
53959;SDS011;39866;48.638;-2.020;2022-10-14T11:49:57;3.72;;;1.17;;
53959;SDS011;39866;48.638;-2.020;2022-10-14T11:52:35;1.20;;;0.85;;
53959;SDS011;39866;48.638;-2.020;2022-10-14T11:55:18;1.50;;;0.70;;
53959;SDS011;39866;48.638;-2.020;2022-10-14T11:57:51;1.40;;;0.73;;
53959;SDS011;39866;48.638;-2.020;2022-10-14T12:00:23;1.63;;;0.60;;
53959;SDS011;39866;48.638;-2.020;2022-10-14T12:02:57;1.55;;;0.60;;
53959;SDS011;39866;48.638;-2.020;2022-10-14T12:13:38;1.48;;;0.50;;
53959;SDS011;39866;48.638;-2.020;2022-10-14T12:16:12;0.93;;;0.40;;
53959;SDS011;39866;48.638;-2.020;2022-10-14T12:18:40;1.13;;;0.40;;
53959;SDS011;39866;48.638;-2.020;2022-10-14T12:21:18;0.93;;;0.50;;
53959;SDS011;39866;48.638;-2.020;2022-10-14T12:24:01;1.95;;;0.60;;
53959;SDS011;39866;48.638;-2.020;2022-10-14T12:29:10;5.63;;;0.75;;
53959;SDS011;39866;48.638;-2.020;2022-10-14T12:31:39;5.20;;;0.95;;
53959;SDS011;39866;48.638;-2.020;2022-10-14T12:36:40;2.53;;;0.60;;
53959;SDS011;39866;48.638;-2.020;2022-10-14T12:41:54;4.13;;;1.30;;
53959;SDS011;39866;48.638;-2.020;2022-10-14T12:47:06;5.47;;;2.00;;
53959;SDS011;39866;48.638;-2.020;2022-10-14T12:49:44;5.47;;;1.75;;
53959;SDS011;39866;48.638;-2.020;2022-10-14T12:52:12;4.40;;;1.80;;
53959;SDS011;39866;48.638;-2.020;2022-10-14T12:54:46;4.63;;;1.85;;
53959;SDS011;39866;48.638;-2.020;2022-10-14T12:57:20;3.70;;;1.40;;
53959;SDS011;39866;48.638;-2.020;2022-10-14T12:59:48;3.53;;;1.30;;
53959;SDS011;39866;48.638;-2.020;2022-10-14T13:02:17;3.80;;;1.33;;
53959;SDS011;39866;48.638;-2.020;2022-10-14T13:04:56;4.35;;;1.15;;
53959;SDS011;39866;48.638;-2.020;2022-10-14T13:09:57;4.88;;;1.30;;
53959;SDS011;39866;48.638;-2.020;2022-10-14T13:15:03;4.27;;;1.07;;
53959;SDS011;39866;48.638;-2.020;2022-10-14T13:17:48;3.88;;;1.45;;
53959;SDS011;39866;48.638;-2.020;2022-10-14T13:20:59;3.20;;;1.00;;
53959;SDS011;39866;48.638;-2.020;2022-10-14T13:25:52;4.28;;;1.00;;
53959;SDS011;39866;48.638;-2.020;2022-10-14T13:28:31;5.65;;;1.30;;
53959;SDS011;39866;48.638;-2.020;2022-10-14T13:31:07;2.63;;;1.00;;
53959;SDS011;39866;48.638;-2.020;2022-10-14T13:33:44;2.13;;;1.00;;
53959;SDS011;39866;48.638;-2.020;2022-10-14T13:36:20;1.88;;;0.70;;
53959;SDS011;39866;48.638;-2.020;2022-10-14T13:38:54;3.85;;;1.00;;
53959;SDS011;39866;48.638;-2.020;2022-10-14T13:41:23;4.28;;;0.90;;
53959;SDS011;39866;48.638;-2.020;2022-10-14T13:43:51;3.78;;;1.00;;
53959;SDS011;39866;48.638;-2.020;2022-10-14T13:48:47;5.28;;;1.13;;
53959;SDS011;39866;48.638;-2.020;2022-10-14T13:56:29;5.43;;;1.20;;
53959;SDS011;39866;48.638;-2.020;2022-10-14T13:58:56;2.80;;;1.00;;
53959;SDS011;39866;48.638;-2.020;2022-10-14T14:01:23;3.00;;;1.10;;
53959;SDS011;39866;48.638;-2.020;2022-10-14T14:03:56;5.20;;;1.27;;
53959;SDS011;39866;48.638;-2.020;2022-10-14T14:06:23;4.03;;;1.10;;
53959;SDS011;39866;48.638;-2.020;2022-10-14T14:08:52;3.55;;;0.80;;
53959;SDS011;39866;48.638;-2.020;2022-10-14T14:11:20;3.67;;;1.00;;
53959;SDS011;39866;48.638;-2.020;2022-10-14T14:13:52;5.28;;;1.30;;
53959;SDS011;39866;48.638;-2.020;2022-10-14T14:16:22;5.93;;;1.23;;
53959;SDS011;39866;48.638;-2.020;2022-10-14T14:18:50;3.28;;;1.20;;
53959;SDS011;39866;48.638;-2.020;2022-10-14T14:21:18;2.80;;;0.90;;
53959;SDS011;39866;48.638;-2.020;2022-10-14T14:26:15;3.72;;;0.90;;
53959;SDS011;39866;48.638;-2.020;2022-10-14T14:28:43;3.70;;;1.00;;
53959;SDS011;39866;48.638;-2.020;2022-10-14T14:31:12;7.90;;;1.73;;
53959;SDS011;39866;48.638;-2.020;2022-10-14T14:33:41;9.43;;;1.50;;
53959;SDS011;39866;48.638;-2.020;2022-10-14T14:36:10;5.93;;;1.52;;
53959;SDS011;39866;48.638;-2.020;2022-10-14T14:38:43;4.00;;;1.13;;
53959;SDS011;39866;48.638;-2.020;2022-10-14T14:41:16;3.80;;;1.27;;
53959;SDS011;39866;48.638;-2.020;2022-10-14T14:43:43;6.60;;;1.23;;
53959;SDS011;39866;48.638;-2.020;2022-10-14T14:46:14;3.80;;;1.15;;
53959;SDS011;39866;48.638;-2.020;2022-10-14T14:48:43;6.07;;;1.42;;
53959;SDS011;39866;48.638;-2.020;2022-10-14T14:51:11;6.85;;;1.23;;
53959;SDS011;39866;48.638;-2.020;2022-10-14T14:53:37;6.00;;;1.35;;
53959;SDS011;39866;48.638;-2.020;2022-10-14T14:56:04;3.42;;;1.20;;
53959;SDS011;39866;48.638;-2.020;2022-10-14T15:01:15;4.18;;;1.10;;
53959;SDS011;39866;48.638;-2.020;2022-10-14T15:04:17;4.32;;;1.00;;
53959;SDS011;39866;48.638;-2.020;2022-10-14T15:07:05;6.15;;;1.13;;
53959;SDS011;39866;48.638;-2.020;2022-10-14T15:09:39;2.97;;;0.90;;
53959;SDS011;39866;48.638;-2.020;2022-10-14T15:12:12;4.13;;;0.80;;
53959;SDS011;39866;48.638;-2.020;2022-10-14T15:14:45;4.07;;;1.15;;
53959;SDS011;39866;48.638;-2.020;2022-10-14T15:22:42;4.28;;;1.00;;
53959;SDS011;39866;48.638;-2.020;2022-10-14T15:32:56;3.15;;;1.23;;
53959;SDS011;39866;48.638;-2.020;2022-10-14T15:35:24;3.45;;;0.90;;
53959;SDS011;39866;48.638;-2.020;2022-10-14T15:37:49;1.63;;;0.60;;
53959;SDS011;39866;48.638;-2.020;2022-10-14T15:40:17;1.60;;;0.73;;
53959;SDS011;39866;48.638;-2.020;2022-10-14T15:42:45;1.98;;;0.80;;
53959;SDS011;39866;48.638;-2.020;2022-10-14T15:45:11;3.80;;;0.90;;
53959;SDS011;39866;48.638;-2.020;2022-10-14T15:47:37;2.78;;;0.90;;
53959;SDS011;39866;48.638;-2.020;2022-10-14T15:50:10;4.28;;;0.80;;
53959;SDS011;39866;48.638;-2.020;2022-10-14T15:52:39;4.20;;;0.80;;
53959;SDS011;39866;48.638;-2.020;2022-10-14T15:55:12;4.03;;;0.80;;
53959;SDS011;39866;48.638;-2.020;2022-10-14T15:57:40;3.83;;;0.80;;
53959;SDS011;39866;48.638;-2.020;2022-10-14T16:00:06;3.88;;;0.90;;
53959;SDS011;39866;48.638;-2.020;2022-10-14T16:02:32;3.17;;;0.80;;
53959;SDS011;39866;48.638;-2.020;2022-10-14T16:04:59;2.88;;;0.80;;
53959;SDS011;39866;48.638;-2.020;2022-10-14T16:07:24;2.83;;;0.80;;
53959;SDS011;39866;48.638;-2.020;2022-10-14T16:09:50;2.03;;;0.63;;
53959;SDS011;39866;48.638;-2.020;2022-10-14T16:12:15;2.13;;;0.68;;
53959;SDS011;39866;48.638;-2.020;2022-10-14T16:14:40;3.03;;;0.80;;
53959;SDS011;39866;48.638;-2.020;2022-10-14T16:17:07;5.18;;;0.80;;
53959;SDS011;39866;48.638;-2.020;2022-10-14T16:19:33;3.13;;;0.70;;
53959;SDS011;39866;48.638;-2.020;2022-10-14T16:21:58;3.55;;;0.85;;
53959;SDS011;39866;48.638;-2.020;2022-10-14T16:24:23;4.43;;;1.10;;
53959;SDS011;39866;48.638;-2.020;2022-10-14T16:26:49;3.50;;;0.85;;
53959;SDS011;39866;48.638;-2.020;2022-10-14T16:29:15;3.35;;;0.90;;
53959;SDS011;39866;48.638;-2.020;2022-10-14T16:31:42;4.70;;;0.95;;
53959;SDS011;39866;48.638;-2.020;2022-10-14T16:34:13;3.25;;;0.80;;
53959;SDS011;39866;48.638;-2.020;2022-10-14T16:36:48;2.78;;;1.02;;
53959;SDS011;39866;48.638;-2.020;2022-10-14T16:39:15;3.10;;;1.27;;
53959;SDS011;39866;48.638;-2.020;2022-10-14T16:41:42;2.47;;;1.20;;
53959;SDS011;39866;48.638;-2.020;2022-10-14T16:44:08;4.40;;;1.60;;
53959;SDS011;39866;48.638;-2.020;2022-10-14T16:46:48;3.15;;;1.30;;
53959;SDS011;39866;48.638;-2.020;2022-10-14T16:49:39;2.15;;;1.30;;
53959;SDS011;39866;48.638;-2.020;2022-10-14T16:52:05;5.68;;;2.30;;
53959;SDS011;39866;48.638;-2.020;2022-10-14T16:54:32;3.88;;;1.60;;
53959;SDS011;39866;48.638;-2.020;2022-10-14T16:56:57;1.95;;;1.10;;
53959;SDS011;39866;48.638;-2.020;2022-10-14T16:59:23;1.98;;;1.40;;
53959;SDS011;39866;48.638;-2.020;2022-10-14T17:01:50;1.50;;;1.30;;
53959;SDS011;39866;48.638;-2.020;2022-10-14T17:04:16;2.03;;;1.27;;
53959;SDS011;39866;48.638;-2.020;2022-10-14T17:06:45;2.08;;;1.40;;
53959;SDS011;39866;48.638;-2.020;2022-10-14T17:09:11;2.70;;;1.50;;
53959;SDS011;39866;48.638;-2.020;2022-10-14T17:11:37;3.47;;;1.30;;
53959;SDS011;39866;48.638;-2.020;2022-10-14T17:14:02;1.65;;;1.10;;
53959;SDS011;39866;48.638;-2.020;2022-10-14T17:16:28;1.77;;;1.25;;
53959;SDS011;39866;48.638;-2.020;2022-10-14T17:18:54;3.17;;;1.48;;